Terminal Aerodrome Forecast
Issued by NWS Sioux Falls, SD

Home | Current Version | Previous Version | Graphics & Text | Print | Product List | Glossary Off
Versions: 1 2 3 4 5 6 7 8 9 10 11 12 13 14 15 16

090
FTUS43 KFSD 230706 AAA
TAFHON
TAF AMD
KHON 230706Z 2307/2406 05007KT P6SM BKN020
     FM230900 08008KT P6SM SCT020 BKN150
     FM231100 12008KT P6SM BKN090
     FM231500 15009KT P6SM BKN250
     FM231800 20008KT P6SM FEW040 SCT130
     FM232100 29015G21KT P6SM FEW040 SCT120
     FM240100 32008KT P6SM FEW200=

USA.gov is the U.S. government's official web portal to all federal, state and local government web resources and services.